sensor_id;sensor_type;location;lat;lon;timestamp;P1;durP1;ratioP1;P2;durP2;ratioP2
19341;SDS011;9807;48.258;12.690;2022-11-15T00:02:14;17.37;;;11.20;;
19341;SDS011;9807;48.258;12.690;2022-11-15T00:04:40;17.13;;;11.53;;
19341;SDS011;9807;48.258;12.690;2022-11-15T00:07:05;17.27;;;11.27;;
19341;SDS011;9807;48.258;12.690;2022-11-15T00:09:31;17.90;;;11.63;;
19341;SDS011;9807;48.258;12.690;2022-11-15T00:11:57;16.83;;;11.37;;
19341;SDS011;9807;48.258;12.690;2022-11-15T00:14:23;17.00;;;11.20;;
19341;SDS011;9807;48.258;12.690;2022-11-15T00:16:48;15.80;;;10.90;;
19341;SDS011;9807;48.258;12.690;2022-11-15T00:19:14;15.57;;;10.23;;
19341;SDS011;9807;48.258;12.690;2022-11-15T00:21:42;15.83;;;10.10;;
19341;SDS011;9807;48.258;12.690;2022-11-15T00:24:08;16.37;;;10.90;;
19341;SDS011;9807;48.258;12.690;2022-11-15T00:26:34;20.80;;;12.77;;
19341;SDS011;9807;48.258;12.690;2022-11-15T00:28:59;20.03;;;12.20;;
19341;SDS011;9807;48.258;12.690;2022-11-15T00:31:25;20.03;;;12.33;;
19341;SDS011;9807;48.258;12.690;2022-11-15T00:33:54;15.20;;;10.37;;
19341;SDS011;9807;48.258;12.690;2022-11-15T00:36:20;16.00;;;10.97;;
19341;SDS011;9807;48.258;12.690;2022-11-15T00:38:45;16.57;;;10.67;;
19341;SDS011;9807;48.258;12.690;2022-11-15T00:41:11;20.13;;;13.20;;
19341;SDS011;9807;48.258;12.690;2022-11-15T00:43:37;22.37;;;14.77;;
19341;SDS011;9807;48.258;12.690;2022-11-15T00:46:04;28.93;;;18.10;;
19341;SDS011;9807;48.258;12.690;2022-11-15T00:48:30;29.97;;;19.03;;
19341;SDS011;9807;48.258;12.690;2022-11-15T00:50:56;29.73;;;17.80;;
19341;SDS011;9807;48.258;12.690;2022-11-15T00:53:22;28.40;;;16.97;;
19341;SDS011;9807;48.258;12.690;2022-11-15T00:55:48;26.93;;;15.17;;
19341;SDS011;9807;48.258;12.690;2022-11-15T00:58:14;17.93;;;11.30;;
19341;SDS011;9807;48.258;12.690;2022-11-15T01:00:39;17.33;;;11.03;;
19341;SDS011;9807;48.258;12.690;2022-11-15T01:03:05;17.27;;;11.07;;
19341;SDS011;9807;48.258;12.690;2022-11-15T01:05:31;16.17;;;11.13;;
19341;SDS011;9807;48.258;12.690;2022-11-15T01:07:57;20.70;;;12.63;;
19341;SDS011;9807;48.258;12.690;2022-11-15T01:10:23;27.17;;;16.47;;
19341;SDS011;9807;48.258;12.690;2022-11-15T01:12:49;26.40;;;17.40;;
19341;SDS011;9807;48.258;12.690;2022-11-15T01:15:15;24.87;;;16.53;;
19341;SDS011;9807;48.258;12.690;2022-11-15T03:56:30;16.60;;;9.97;;
19341;SDS011;9807;48.258;12.690;2022-11-15T03:58:55;12.57;;;8.77;;
19341;SDS011;9807;48.258;12.690;2022-11-15T04:01:21;11.57;;;7.93;;
19341;SDS011;9807;48.258;12.690;2022-11-15T04:03:47;12.03;;;8.50;;
19341;SDS011;9807;48.258;12.690;2022-11-15T04:06:13;12.83;;;8.60;;
19341;SDS011;9807;48.258;12.690;2022-11-15T04:08:39;12.53;;;8.97;;
19341;SDS011;9807;48.258;12.690;2022-11-15T04:11:04;13.93;;;10.23;;
19341;SDS011;9807;48.258;12.690;2022-11-15T04:13:30;10.97;;;8.13;;
19341;SDS011;9807;48.258;12.690;2022-11-15T04:15:56;11.67;;;8.80;;
19341;SDS011;9807;48.258;12.690;2022-11-15T04:18:21;11.13;;;8.17;;
19341;SDS011;9807;48.258;12.690;2022-11-15T04:20:49;13.20;;;8.57;;
19341;SDS011;9807;48.258;12.690;2022-11-15T04:23:33;11.23;;;8.13;;
19341;SDS011;9807;48.258;12.690;2022-11-15T04:26:18;11.23;;;7.63;;
19341;SDS011;9807;48.258;12.690;2022-11-15T04:28:46;11.57;;;8.03;;
19341;SDS011;9807;48.258;12.690;2022-11-15T04:31:31;10.20;;;7.30;;
19341;SDS011;9807;48.258;12.690;2022-11-15T04:33:57;11.17;;;7.93;;
19341;SDS011;9807;48.258;12.690;2022-11-15T04:36:23;12.87;;;8.70;;
19341;SDS011;9807;48.258;12.690;2022-11-15T04:39:07;10.13;;;7.17;;
19341;SDS011;9807;48.258;12.690;2022-11-15T04:41:33;11.50;;;7.90;;
19341;SDS011;9807;48.258;12.690;2022-11-15T04:43:59;9.97;;;7.60;;
19341;SDS011;9807;48.258;12.690;2022-11-15T04:46:25;11.83;;;7.90;;
19341;SDS011;9807;48.258;12.690;2022-11-15T04:48:54;11.87;;;8.20;;
19341;SDS011;9807;48.258;12.690;2022-11-15T04:51:20;10.23;;;7.40;;
19341;SDS011;9807;48.258;12.690;2022-11-15T04:53:46;11.60;;;7.50;;
19341;SDS011;9807;48.258;12.690;2022-11-15T04:56:12;11.03;;;8.07;;
19341;SDS011;9807;48.258;12.690;2022-11-15T04:58:38;10.27;;;7.70;;
19341;SDS011;9807;48.258;12.690;2022-11-15T05:01:12;10.27;;;7.50;;
19341;SDS011;9807;48.258;12.690;2022-11-15T05:03:39;11.40;;;8.57;;
19341;SDS011;9807;48.258;12.690;2022-11-15T05:06:25;10.17;;;7.07;;
19341;SDS011;9807;48.258;12.690;2022-11-15T05:08:55;12.60;;;7.60;;
19341;SDS011;9807;48.258;12.690;2022-11-15T05:11:21;10.23;;;7.20;;
19341;SDS011;9807;48.258;12.690;2022-11-15T05:13:47;11.23;;;7.53;;
19341;SDS011;9807;48.258;12.690;2022-11-15T05:16:13;11.00;;;7.40;;
19341;SDS011;9807;48.258;12.690;2022-11-15T05:18:39;11.03;;;7.90;;
19341;SDS011;9807;48.258;12.690;2022-11-15T05:21:06;9.53;;;7.00;;
19341;SDS011;9807;48.258;12.690;2022-11-15T05:23:34;10.00;;;6.77;;
19341;SDS011;9807;48.258;12.690;2022-11-15T05:26:00;13.03;;;7.63;;
19341;SDS011;9807;48.258;12.690;2022-11-15T05:28:27;11.33;;;7.60;;
19341;SDS011;9807;48.258;12.690;2022-11-15T05:30:53;9.77;;;7.43;;
19341;SDS011;9807;48.258;12.690;2022-11-15T05:36:42;9.30;;;6.67;;
19341;SDS011;9807;48.258;12.690;2022-11-15T05:39:10;9.87;;;7.10;;
19341;SDS011;9807;48.258;12.690;2022-11-15T05:44:05;25.90;;;9.07;;
19341;SDS011;9807;48.258;12.690;2022-11-15T05:46:34;17.23;;;8.30;;
19341;SDS011;9807;48.258;12.690;2022-11-15T05:49:03;15.80;;;8.53;;
19341;SDS011;9807;48.258;12.690;2022-11-15T05:51:32;14.87;;;8.63;;
19341;SDS011;9807;48.258;12.690;2022-11-15T05:53:58;9.70;;;6.93;;
19341;SDS011;9807;48.258;12.690;2022-11-15T05:56:26;8.70;;;6.40;;
19341;SDS011;9807;48.258;12.690;2022-11-15T05:58:53;8.63;;;6.30;;
19341;SDS011;9807;48.258;12.690;2022-11-15T06:01:22;8.93;;;6.40;;
19341;SDS011;9807;48.258;12.690;2022-11-15T06:03:49;9.07;;;6.10;;
19341;SDS011;9807;48.258;12.690;2022-11-15T06:40:08;52.53;;;7.83;;
19341;SDS011;9807;48.258;12.690;2022-11-15T06:58:20;17.13;;;6.57;;
19341;SDS011;9807;48.258;12.690;2022-11-15T07:01:08;7.50;;;5.57;;
19341;SDS011;9807;48.258;12.690;2022-11-15T07:11:33;10.10;;;6.07;;
19341;SDS011;9807;48.258;12.690;2022-11-15T07:13:59;9.53;;;6.33;;
19341;SDS011;9807;48.258;12.690;2022-11-15T07:16:25;42.73;;;7.83;;
19341;SDS011;9807;48.258;12.690;2022-11-15T07:18:51;7.30;;;5.67;;
19341;SDS011;9807;48.258;12.690;2022-11-15T07:21:18;10.77;;;6.10;;
19341;SDS011;9807;48.258;12.690;2022-11-15T07:23:44;8.20;;;5.70;;
19341;SDS011;9807;48.258;12.690;2022-11-15T07:26:09;9.43;;;6.00;;
19341;SDS011;9807;48.258;12.690;2022-11-15T07:28:35;6.90;;;5.47;;
19341;SDS011;9807;48.258;12.690;2022-11-15T07:31:02;10.43;;;5.43;;
19341;SDS011;9807;48.258;12.690;2022-11-15T07:33:31;9.43;;;5.80;;
19341;SDS011;9807;48.258;12.690;2022-11-15T07:36:04;7.33;;;5.67;;
19341;SDS011;9807;48.258;12.690;2022-11-15T07:38:31;8.50;;;5.30;;
19341;SDS011;9807;48.258;12.690;2022-11-15T07:41:01;8.00;;;5.53;;
19341;SDS011;9807;48.258;12.690;2022-11-15T07:43:28;6.67;;;5.37;;
19341;SDS011;9807;48.258;12.690;2022-11-15T07:45:54;6.93;;;5.30;;
19341;SDS011;9807;48.258;12.690;2022-11-15T07:48:21;7.20;;;5.40;;
19341;SDS011;9807;48.258;12.690;2022-11-15T07:50:47;7.93;;;6.00;;
19341;SDS011;9807;48.258;12.690;2022-11-15T07:53:13;7.43;;;5.33;;
19341;SDS011;9807;48.258;12.690;2022-11-15T07:55:39;7.10;;;5.43;;
19341;SDS011;9807;48.258;12.690;2022-11-15T07:58:07;8.53;;;5.20;;
19341;SDS011;9807;48.258;12.690;2022-11-15T08:00:35;7.33;;;5.33;;
19341;SDS011;9807;48.258;12.690;2022-11-15T08:03:09;6.63;;;5.43;;
19341;SDS011;9807;48.258;12.690;2022-11-15T08:05:38;10.93;;;5.70;;
19341;SDS011;9807;48.258;12.690;2022-11-15T08:08:05;7.10;;;5.40;;
19341;SDS011;9807;48.258;12.690;2022-11-15T08:10:32;8.13;;;5.53;;
19341;SDS011;9807;48.258;12.690;2022-11-15T08:13:09;8.07;;;5.27;;
19341;SDS011;9807;48.258;12.690;2022-11-15T08:15:36;9.67;;;5.80;;
19341;SDS011;9807;48.258;12.690;2022-11-15T08:18:14;7.83;;;5.43;;
19341;SDS011;9807;48.258;12.690;2022-11-15T08:20:41;7.37;;;5.57;;
19341;SDS011;9807;48.258;12.690;2022-11-15T08:23:07;13.40;;;6.20;;
19341;SDS011;9807;48.258;12.690;2022-11-15T08:25:35;7.13;;;5.63;;
19341;SDS011;9807;48.258;12.690;2022-11-15T08:28:05;7.33;;;6.00;;
19341;SDS011;9807;48.258;12.690;2022-11-15T08:30:36;8.60;;;5.73;;
19341;SDS011;9807;48.258;12.690;2022-11-15T08:33:09;7.93;;;5.90;;
19341;SDS011;9807;48.258;12.690;2022-11-15T08:35:36;9.20;;;6.70;;
19341;SDS011;9807;48.258;12.690;2022-11-15T08:38:01;10.00;;;6.77;;
19341;SDS011;9807;48.258;12.690;2022-11-15T08:40:27;9.83;;;7.17;;
19341;SDS011;9807;48.258;12.690;2022-11-15T08:42:53;9.67;;;6.07;;
19341;SDS011;9807;48.258;12.690;2022-11-15T08:45:19;13.20;;;8.80;;
19341;SDS011;9807;48.258;12.690;2022-11-15T08:47:45;7.40;;;5.63;;
19341;SDS011;9807;48.258;12.690;2022-11-15T08:50:10;11.73;;;7.07;;
19341;SDS011;9807;48.258;12.690;2022-11-15T08:52:36;7.57;;;6.43;;
19341;SDS011;9807;48.258;12.690;2022-11-15T08:55:02;15.53;;;9.23;;
19341;SDS011;9807;48.258;12.690;2022-11-15T08:57:28;10.67;;;7.70;;
19341;SDS011;9807;48.258;12.690;2022-11-15T08:59:57;11.83;;;8.20;;
19341;SDS011;9807;48.258;12.690;2022-11-15T09:02:24;8.87;;;6.90;;
19341;SDS011;9807;48.258;12.690;2022-11-15T09:04:50;13.70;;;8.63;;
19341;SDS011;9807;48.258;12.690;2022-11-15T09:07:15;11.77;;;7.60;;
19341;SDS011;9807;48.258;12.690;2022-11-15T09:09:42;12.57;;;8.70;;
19341;SDS011;9807;48.258;12.690;2022-11-15T09:12:08;12.27;;;7.03;;
19341;SDS011;9807;48.258;12.690;2022-11-15T09:14:34;8.97;;;6.17;;
19341;SDS011;9807;48.258;12.690;2022-11-15T09:17:00;7.07;;;5.30;;
19341;SDS011;9807;48.258;12.690;2022-11-15T09:19:26;8.20;;;5.90;;
19341;SDS011;9807;48.258;12.690;2022-11-15T09:21:53;9.43;;;6.87;;
19341;SDS011;9807;48.258;12.690;2022-11-15T09:24:19;8.87;;;6.60;;
19341;SDS011;9807;48.258;12.690;2022-11-15T09:26:46;8.93;;;6.53;;
19341;SDS011;9807;48.258;12.690;2022-11-15T09:29:11;9.90;;;7.20;;
19341;SDS011;9807;48.258;12.690;2022-11-15T09:31:40;11.60;;;7.97;;
19341;SDS011;9807;48.258;12.690;2022-11-15T09:34:06;8.77;;;6.80;;
19341;SDS011;9807;48.258;12.690;2022-11-15T09:36:32;10.07;;;6.67;;
19341;SDS011;9807;48.258;12.690;2022-11-15T09:38:58;9.97;;;7.27;;
19341;SDS011;9807;48.258;12.690;2022-11-15T09:46:42;13.53;;;9.90;;
19341;SDS011;9807;48.258;12.690;2022-11-15T09:49:28;14.07;;;8.27;;
19341;SDS011;9807;48.258;12.690;2022-11-15T09:51:55;12.17;;;8.63;;
19341;SDS011;9807;48.258;12.690;2022-11-15T09:54:35;15.57;;;8.80;;
19341;SDS011;9807;48.258;12.690;2022-11-15T10:05:23;12.23;;;8.50;;
19341;SDS011;9807;48.258;12.690;2022-11-15T10:07:57;10.23;;;7.93;;
19341;SDS011;9807;48.258;12.690;2022-11-15T10:10:41;15.80;;;9.70;;
19341;SDS011;9807;48.258;12.690;2022-11-15T10:13:33;17.47;;;9.97;;
19341;SDS011;9807;48.258;12.690;2022-11-15T10:16:13;15.20;;;10.70;;
19341;SDS011;9807;48.258;12.690;2022-11-15T10:19:05;14.97;;;9.87;;
19341;SDS011;9807;48.258;12.690;2022-11-15T10:24:26;14.70;;;9.73;;
19341;SDS011;9807;48.258;12.690;2022-11-15T10:26:54;14.43;;;9.60;;
19341;SDS011;9807;48.258;12.690;2022-11-15T10:29:21;11.93;;;8.70;;
19341;SDS011;9807;48.258;12.690;2022-11-15T10:31:48;12.67;;;8.70;;
19341;SDS011;9807;48.258;12.690;2022-11-15T10:34:16;16.43;;;10.13;;
19341;SDS011;9807;48.258;12.690;2022-11-15T10:39:23;12.57;;;9.57;;
19341;SDS011;9807;48.258;12.690;2022-11-15T10:41:49;9.77;;;7.73;;
19341;SDS011;9807;48.258;12.690;2022-11-15T10:44:19;11.60;;;8.30;;
19341;SDS011;9807;48.258;12.690;2022-11-15T10:46:48;18.23;;;11.57;;
19341;SDS011;9807;48.258;12.690;2022-11-15T10:49:52;13.90;;;8.40;;
19341;SDS011;9807;48.258;12.690;2022-11-15T10:52:38;15.23;;;10.47;;
19341;SDS011;9807;48.258;12.690;2022-11-15T10:57:48;16.80;;;10.83;;
19341;SDS011;9807;48.258;12.690;2022-11-15T11:00:29;10.80;;;8.17;;
19341;SDS011;9807;48.258;12.690;2022-11-15T11:02:59;10.13;;;7.33;;
19341;SDS011;9807;48.258;12.690;2022-11-15T11:05:45;11.30;;;8.10;;
19341;SDS011;9807;48.258;12.690;2022-11-15T11:10:37;11.83;;;9.03;;
19341;SDS011;9807;48.258;12.690;2022-11-15T11:13:23;14.20;;;9.37;;
19341;SDS011;9807;48.258;12.690;2022-11-15T11:18:49;14.13;;;10.10;;
19341;SDS011;9807;48.258;12.690;2022-11-15T11:24:44;13.30;;;9.20;;
19341;SDS011;9807;48.258;12.690;2022-11-15T11:33:10;11.77;;;8.83;;
19341;SDS011;9807;48.258;12.690;2022-11-15T11:35:43;10.87;;;8.60;;
19341;SDS011;9807;48.258;12.690;2022-11-15T11:41:04;13.53;;;9.53;;
19341;SDS011;9807;48.258;12.690;2022-11-15T11:46:25;9.70;;;7.23;;
19341;SDS011;9807;48.258;12.690;2022-11-15T11:49:10;10.90;;;8.00;;
19341;SDS011;9807;48.258;12.690;2022-11-15T11:51:47;12.43;;;8.73;;
19341;SDS011;9807;48.258;12.690;2022-11-15T11:55:11;14.30;;;8.47;;
19341;SDS011;9807;48.258;12.690;2022-11-15T11:57:21;11.80;;;8.23;;
19341;SDS011;9807;48.258;12.690;2022-11-15T12:00:22;11.50;;;8.53;;
19341;SDS011;9807;48.258;12.690;2022-11-15T12:05:44;12.63;;;8.83;;
19341;SDS011;9807;48.258;12.690;2022-11-15T12:11:13;12.67;;;9.33;;
19341;SDS011;9807;48.258;12.690;2022-11-15T12:13:43;14.23;;;9.47;;
19341;SDS011;9807;48.258;12.690;2022-11-15T12:16:23;14.60;;;10.13;;
19341;SDS011;9807;48.258;12.690;2022-11-15T12:18:54;14.87;;;9.37;;
19341;SDS011;9807;48.258;12.690;2022-11-15T12:21:32;13.77;;;10.07;;
19341;SDS011;9807;48.258;12.690;2022-11-15T12:24:07;12.10;;;8.47;;
19341;SDS011;9807;48.258;12.690;2022-11-15T12:27:30;15.17;;;10.27;;
19341;SDS011;9807;48.258;12.690;2022-11-15T12:29:38;14.37;;;10.50;;
19341;SDS011;9807;48.258;12.690;2022-11-15T12:32:26;14.93;;;10.47;;
19341;SDS011;9807;48.258;12.690;2022-11-15T12:34:55;14.23;;;10.40;;
19341;SDS011;9807;48.258;12.690;2022-11-15T12:42:36;11.93;;;9.10;;
19341;SDS011;9807;48.258;12.690;2022-11-15T12:45:26;14.60;;;9.37;;
19341;SDS011;9807;48.258;12.690;2022-11-15T12:58:53;14.10;;;9.30;;
19341;SDS011;9807;48.258;12.690;2022-11-15T13:06:53;13.97;;;9.40;;
19341;SDS011;9807;48.258;12.690;2022-11-15T13:11:58;16.73;;;10.80;;
19341;SDS011;9807;48.258;12.690;2022-11-15T13:14:43;14.33;;;9.70;;
19341;SDS011;9807;48.258;12.690;2022-11-15T13:19:58;13.63;;;10.03;;
19341;SDS011;9807;48.258;12.690;2022-11-15T13:22:43;13.53;;;9.60;;
19341;SDS011;9807;48.258;12.690;2022-11-15T13:25:24;14.27;;;9.50;;
19341;SDS011;9807;48.258;12.690;2022-11-15T13:30:39;16.07;;;10.97;;
19341;SDS011;9807;48.258;12.690;2022-11-15T13:33:14;19.60;;;12.23;;
19341;SDS011;9807;48.258;12.690;2022-11-15T13:35:45;16.70;;;11.47;;
19341;SDS011;9807;48.258;12.690;2022-11-15T13:38:27;14.27;;;10.03;;
19341;SDS011;9807;48.258;12.690;2022-11-15T13:40:55;17.30;;;10.87;;
19341;SDS011;9807;48.258;12.690;2022-11-15T13:48:34;15.87;;;10.70;;
19341;SDS011;9807;48.258;12.690;2022-11-15T13:51:02;17.97;;;11.53;;
19341;SDS011;9807;48.258;12.690;2022-11-15T13:53:31;17.60;;;12.43;;
19341;SDS011;9807;48.258;12.690;2022-11-15T13:55:58;17.10;;;12.13;;
19341;SDS011;9807;48.258;12.690;2022-11-15T13:58:25;18.20;;;12.87;;
19341;SDS011;9807;48.258;12.690;2022-11-15T14:01:02;18.07;;;11.70;;
19341;SDS011;9807;48.258;12.690;2022-11-15T14:03:30;17.00;;;12.23;;
19341;SDS011;9807;48.258;12.690;2022-11-15T14:14:47;19.50;;;12.30;;
19341;SDS011;9807;48.258;12.690;2022-11-15T14:19:39;15.23;;;10.57;;
19341;SDS011;9807;48.258;12.690;2022-11-15T14:31:27;18.40;;;11.70;;
19341;SDS011;9807;48.258;12.690;2022-11-15T14:33:53;14.10;;;9.73;;
19341;SDS011;9807;48.258;12.690;2022-11-15T14:36:19;17.57;;;12.00;;
19341;SDS011;9807;48.258;12.690;2022-11-15T14:38:46;17.37;;;11.60;;
19341;SDS011;9807;48.258;12.690;2022-11-15T14:47:18;13.13;;;9.57;;
19341;SDS011;9807;48.258;12.690;2022-11-15T14:52:33;13.00;;;8.83;;
19341;SDS011;9807;48.258;12.690;2022-11-15T14:55:01;13.77;;;9.47;;
19341;SDS011;9807;48.258;12.690;2022-11-15T15:00:31;12.07;;;8.70;;
19341;SDS011;9807;48.258;12.690;2022-11-15T15:02:59;13.27;;;8.77;;
19341;SDS011;9807;48.258;12.690;2022-11-15T15:05:47;11.90;;;8.83;;
19341;SDS011;9807;48.258;12.690;2022-11-15T15:11:35;11.93;;;8.60;;
19341;SDS011;9807;48.258;12.690;2022-11-15T15:14:00;12.07;;;8.40;;
19341;SDS011;9807;48.258;12.690;2022-11-15T15:16:26;11.07;;;7.67;;
19341;SDS011;9807;48.258;12.690;2022-11-15T15:22:16;10.17;;;7.37;;
19341;SDS011;9807;48.258;12.690;2022-11-15T15:24:44;15.47;;;10.43;;
19341;SDS011;9807;48.258;12.690;2022-11-15T15:27:12;10.83;;;7.43;;
19341;SDS011;9807;48.258;12.690;2022-11-15T15:29:38;10.03;;;7.43;;
19341;SDS011;9807;48.258;12.690;2022-11-15T15:32:04;10.23;;;7.30;;
19341;SDS011;9807;48.258;12.690;2022-11-15T15:43:32;12.17;;;8.70;;
19341;SDS011;9807;48.258;12.690;2022-11-15T15:49:36;16.17;;;10.23;;
19341;SDS011;9807;48.258;12.690;2022-11-15T16:10:44;11.70;;;7.43;;
19341;SDS011;9807;48.258;12.690;2022-11-15T16:13:13;17.60;;;11.67;;
19341;SDS011;9807;48.258;12.690;2022-11-15T16:15:39;14.20;;;9.87;;
19341;SDS011;9807;48.258;12.690;2022-11-15T16:18:05;9.97;;;7.23;;
19341;SDS011;9807;48.258;12.690;2022-11-15T16:26:14;10.97;;;7.60;;
19341;SDS011;9807;48.258;12.690;2022-11-15T16:28:36;10.77;;;7.47;;
19341;SDS011;9807;48.258;12.690;2022-11-15T16:31:03;14.33;;;7.67;;
19341;SDS011;9807;48.258;12.690;2022-11-15T16:33:33;11.87;;;7.90;;
19341;SDS011;9807;48.258;12.690;2022-11-15T16:36:02;10.23;;;7.20;;
19341;SDS011;9807;48.258;12.690;2022-11-15T16:41:08;12.77;;;7.77;;
19341;SDS011;9807;48.258;12.690;2022-11-15T16:43:34;11.48;;;8.48;;
19341;SDS011;9807;48.258;12.690;2022-11-15T16:46:05;11.77;;;8.00;;
19341;SDS011;9807;48.258;12.690;2022-11-15T16:48:39;12.73;;;8.20;;
19341;SDS011;9807;48.258;12.690;2022-11-15T16:51:05;12.43;;;8.40;;
19341;SDS011;9807;48.258;12.690;2022-11-15T16:53:32;11.40;;;8.40;;
19341;SDS011;9807;48.258;12.690;2022-11-15T16:58:33;22.23;;;13.77;;
19341;SDS011;9807;48.258;12.690;2022-11-15T17:01:02;12.37;;;8.80;;
19341;SDS011;9807;48.258;12.690;2022-11-15T17:03:29;14.00;;;8.97;;
19341;SDS011;9807;48.258;12.690;2022-11-15T17:05:57;13.80;;;8.97;;
19341;SDS011;9807;48.258;12.690;2022-11-15T17:16:53;15.10;;;9.90;;
19341;SDS011;9807;48.258;12.690;2022-11-15T17:22:13;15.53;;;9.90;;
19341;SDS011;9807;48.258;12.690;2022-11-15T17:29:47;15.00;;;9.77;;
19341;SDS011;9807;48.258;12.690;2022-11-15T17:34:48;24.27;;;14.70;;
19341;SDS011;9807;48.258;12.690;2022-11-15T17:39:50;17.20;;;10.63;;
19341;SDS011;9807;48.258;12.690;2022-11-15T17:47:21;20.07;;;12.57;;
19341;SDS011;9807;48.258;12.690;2022-11-15T17:49:50;17.77;;;11.07;;
19341;SDS011;9807;48.258;12.690;2022-11-15T17:52:18;17.23;;;10.57;;
19341;SDS011;9807;48.258;12.690;2022-11-15T17:54:44;16.50;;;10.37;;
19341;SDS011;9807;48.258;12.690;2022-11-15T17:57:11;19.60;;;11.50;;
19341;SDS011;9807;48.258;12.690;2022-11-15T17:59:37;17.67;;;10.53;;
19341;SDS011;9807;48.258;12.690;2022-11-15T18:02:03;14.20;;;10.00;;
19341;SDS011;9807;48.258;12.690;2022-11-15T18:04:33;15.30;;;10.07;;
19341;SDS011;9807;48.258;12.690;2022-11-15T18:20:23;17.57;;;11.13;;
19341;SDS011;9807;48.258;12.690;2022-11-15T19:44:55;51.40;;;13.03;;
19341;SDS011;9807;48.258;12.690;2022-11-15T19:47:22;19.47;;;12.20;;
19341;SDS011;9807;48.258;12.690;2022-11-15T19:49:53;25.03;;;12.33;;
19341;SDS011;9807;48.258;12.690;2022-11-15T19:52:28;16.67;;;11.50;;
19341;SDS011;9807;48.258;12.690;2022-11-15T19:57:49;25.37;;;12.53;;
19341;SDS011;9807;48.258;12.690;2022-11-15T20:49:32;17.50;;;11.70;;
19341;SDS011;9807;48.258;12.690;2022-11-15T20:52:09;17.07;;;11.83;;
19341;SDS011;9807;48.258;12.690;2022-11-15T20:54:36;17.10;;;12.10;;
19341;SDS011;9807;48.258;12.690;2022-11-15T20:57:03;18.00;;;11.77;;
19341;SDS011;9807;48.258;12.690;2022-11-15T20:59:29;17.37;;;11.53;;
19341;SDS011;9807;48.258;12.690;2022-11-15T21:32:59;15.87;;;10.97;;
19341;SDS011;9807;48.258;12.690;2022-11-15T21:35:25;13.80;;;10.47;;
19341;SDS011;9807;48.258;12.690;2022-11-15T21:57:20;15.60;;;10.43;;
19341;SDS011;9807;48.258;12.690;2022-11-15T22:48:57;12.93;;;8.83;;
19341;SDS011;9807;48.258;12.690;2022-11-15T22:51:23;14.23;;;9.37;;
19341;SDS011;9807;48.258;12.690;2022-11-15T22:53:49;11.67;;;8.70;;
19341;SDS011;9807;48.258;12.690;2022-11-15T22:56:14;12.70;;;9.00;;
19341;SDS011;9807;48.258;12.690;2022-11-15T22:58:40;12.63;;;9.00;;
19341;SDS011;9807;48.258;12.690;2022-11-15T23:01:06;11.40;;;8.40;;
19341;SDS011;9807;48.258;12.690;2022-11-15T23:03:42;11.00;;;7.97;;
19341;SDS011;9807;48.258;12.690;2022-11-15T23:06:08;12.40;;;8.70;;
19341;SDS011;9807;48.258;12.690;2022-11-15T23:08:33;11.47;;;7.87;;
19341;SDS011;9807;48.258;12.690;2022-11-15T23:11:03;11.50;;;8.17;;
19341;SDS011;9807;48.258;12.690;2022-11-15T23:13:48;12.33;;;8.90;;
19341;SDS011;9807;48.258;12.690;2022-11-15T23:16:15;11.70;;;8.50;;
19341;SDS011;9807;48.258;12.690;2022-11-15T23:18:48;11.00;;;8.33;;
19341;SDS011;9807;48.258;12.690;2022-11-15T23:21:16;10.77;;;7.93;;
19341;SDS011;9807;48.258;12.690;2022-11-15T23:24:05;11.33;;;7.93;;
19341;SDS011;9807;48.258;12.690;2022-11-15T23:26:32;9.30;;;7.60;;
19341;SDS011;9807;48.258;12.690;2022-11-15T23:28:58;10.73;;;7.90;;
19341;SDS011;9807;48.258;12.690;2022-11-15T23:31:24;10.77;;;8.13;;
19341;SDS011;9807;48.258;12.690;2022-11-15T23:34:08;13.20;;;9.17;;
19341;SDS011;9807;48.258;12.690;2022-11-15T23:36:34;11.97;;;8.33;;
19341;SDS011;9807;48.258;12.690;2022-11-15T23:39:00;11.97;;;7.93;;
19341;SDS011;9807;48.258;12.690;2022-11-15T23:41:27;9.97;;;7.83;;
19341;SDS011;9807;48.258;12.690;2022-11-15T23:43:53;13.37;;;8.17;;
19341;SDS011;9807;48.258;12.690;2022-11-15T23:46:18;10.87;;;8.37;;
19341;SDS011;9807;48.258;12.690;2022-11-15T23:48:44;11.30;;;8.03;;
19341;SDS011;9807;48.258;12.690;2022-11-15T23:51:10;13.60;;;9.57;;
19341;SDS011;9807;48.258;12.690;2022-11-15T23:53:36;12.17;;;8.60;;
19341;SDS011;9807;48.258;12.690;2022-11-15T23:56:06;10.47;;;8.17;;
19341;SDS011;9807;48.258;12.690;2022-11-15T23:58:34;9.90;;;7.37;;
